createdAt,value
2019-05-05T00:01:35.000Z,98157
2019-05-05T00:03:04.000Z,98157
2019-05-05T00:05:10.000Z,98158
2019-05-05T00:06:40.000Z,98158
2019-05-05T00:08:51.000Z,98157
2019-05-05T00:10:25.000Z,98155
2019-05-05T00:12:31.000Z,98153
2019-05-05T00:14:03.000Z,98153
2019-05-05T00:16:12.000Z,98154
2019-05-05T00:17:41.000Z,98158
2019-05-05T00:19:45.000Z,98158
2019-05-05T00:21:10.000Z,98158
2019-05-05T00:23:18.000Z,98163
2019-05-05T00:24:49.000Z,98165
2019-05-05T00:26:53.000Z,98166
2019-05-05T00:28:24.000Z,98164
2019-05-05T00:30:31.000Z,98164
2019-05-05T00:31:57.000Z,98165
2019-05-05T00:34:03.000Z,98167
2019-05-05T00:35:30.000Z,98169
2019-05-05T00:37:42.000Z,98173
2019-05-05T00:39:09.000Z,98177
2019-05-05T00:41:22.000Z,98178
2019-05-05T00:42:56.000Z,98180
2019-05-05T00:46:35.000Z,98185
2019-05-05T00:47:32.000Z,98185
2019-05-05T00:49:05.000Z,98187
2019-05-05T00:51:14.000Z,98189
2019-05-05T00:52:47.000Z,98191
2019-05-05T00:55:01.000Z,98194
2019-05-05T00:56:33.000Z,98195
2019-05-05T00:58:45.000Z,98192
2019-05-05T01:00:18.000Z,98191
2019-05-05T01:02:28.000Z,98191
2019-05-05T01:04:05.000Z,98193
2019-05-05T01:06:13.000Z,98194
2019-05-05T01:07:45.000Z,98192
2019-05-05T01:09:56.000Z,98194
2019-05-05T01:11:24.000Z,98195
2019-05-05T01:13:31.000Z,98196
2019-05-05T01:14:58.000Z,98196
2019-05-05T01:17:09.000Z,98198
2019-05-05T01:18:38.000Z,98202
2019-05-05T01:20:49.000Z,98202
2019-05-05T01:22:16.000Z,98206
2019-05-05T01:24:24.000Z,98208
2019-05-05T01:25:57.000Z,98212
2019-05-05T01:28:08.000Z,98216
2019-05-05T01:29:39.000Z,98221
2019-05-05T01:31:51.000Z,98227
2019-05-05T01:33:22.000Z,98232
2019-05-05T01:35:31.000Z,98237
2019-05-05T01:37:03.000Z,98239
2019-05-05T01:44:27.000Z,98247
2019-05-05T01:45:49.000Z,98250
2019-05-05T01:47:50.000Z,98253
2019-05-05T01:49:12.000Z,98257
2019-05-05T01:51:15.000Z,98261
2019-05-05T01:52:38.000Z,98262
2019-05-05T01:54:39.000Z,98264
2019-05-05T01:56:02.000Z,98266
2019-05-05T01:58:04.000Z,98270
2019-05-05T01:59:27.000Z,98273
2019-05-05T02:01:30.000Z,98273
2019-05-05T02:02:52.000Z,98274
2019-05-05T02:04:53.000Z,98272
2019-05-05T02:06:18.000Z,98273
2019-05-05T02:08:20.000Z,98271
2019-05-05T02:09:42.000Z,98271
2019-05-05T02:11:45.000Z,98270
2019-05-05T02:13:07.000Z,98272
2019-05-05T02:15:08.000Z,98273
2019-05-05T02:16:30.000Z,98277
2019-05-05T02:18:31.000Z,98279
2019-05-05T02:19:53.000Z,98280
2019-05-05T02:21:56.000Z,98278
2019-05-05T02:23:18.000Z,98283
2019-05-05T02:25:20.000Z,98285
2019-05-05T02:26:42.000Z,98288
2019-05-05T02:28:44.000Z,98287
2019-05-05T02:30:08.000Z,98291
2019-05-05T02:32:09.000Z,98292
2019-05-05T02:33:34.000Z,98298
2019-05-05T02:35:37.000Z,98300
2019-05-05T02:37:00.000Z,98306
2019-05-05T02:39:01.000Z,98309
2019-05-05T02:40:24.000Z,98311
2019-05-05T02:42:27.000Z,98312
2019-05-05T02:43:49.000Z,98313
2019-05-05T02:45:51.000Z,98315
2019-05-05T02:47:14.000Z,98316
2019-05-05T02:49:18.000Z,98318
2019-05-05T02:50:41.000Z,98321
2019-05-05T02:52:57.000Z,98324
2019-05-05T02:54:19.000Z,98326
2019-05-05T02:56:22.000Z,98326
2019-05-05T02:57:46.000Z,98331
2019-05-05T02:59:47.000Z,98335
2019-05-05T03:01:12.000Z,98337
2019-05-05T03:03:14.000Z,98340
2019-05-05T03:04:37.000Z,98340
2019-05-05T03:06:40.000Z,98340
2019-05-05T03:08:02.000Z,98337
2019-05-05T03:10:07.000Z,98334
2019-05-05T03:11:30.000Z,98333
2019-05-05T03:13:35.000Z,98333
2019-05-05T03:14:57.000Z,98333
2019-05-05T03:17:00.000Z,98331
2019-05-05T03:18:22.000Z,98331
2019-05-05T03:20:27.000Z,98336
2019-05-05T03:21:52.000Z,98338
2019-05-05T03:23:59.000Z,98339
2019-05-05T03:25:22.000Z,98341
2019-05-05T03:27:24.000Z,98342
2019-05-05T03:28:47.000Z,98343
2019-05-05T03:30:48.000Z,98343
2019-05-05T03:32:14.000Z,98344
2019-05-05T03:34:17.000Z,98346
2019-05-05T03:35:39.000Z,98350
2019-05-05T03:37:41.000Z,98354
2019-05-05T03:39:04.000Z,98355
2019-05-05T03:41:06.000Z,98358
2019-05-05T03:42:28.000Z,98361
2019-05-05T03:44:33.000Z,98363
2019-05-05T03:45:56.000Z,98364
2019-05-05T03:47:57.000Z,98365
2019-05-05T03:49:23.000Z,98366
2019-05-05T03:51:27.000Z,98371
2019-05-05T03:52:52.000Z,98373
2019-05-05T03:54:56.000Z,98376
2019-05-05T03:56:24.000Z,98378
2019-05-05T03:58:28.000Z,98379
2019-05-05T03:59:53.000Z,98379
2019-05-05T04:01:58.000Z,98380
2019-05-05T04:03:22.000Z,98383
2019-05-05T04:05:27.000Z,98387
2019-05-05T04:06:53.000Z,98389
2019-05-05T04:09:00.000Z,98394
2019-05-05T04:10:26.000Z,98399
2019-05-05T04:12:27.000Z,98403
2019-05-05T04:13:51.000Z,98404
2019-05-05T04:15:54.000Z,98405
2019-05-05T04:17:23.000Z,98405
2019-05-05T04:19:26.000Z,98407
2019-05-05T04:20:55.000Z,98407
2019-05-05T04:22:56.000Z,98410
2019-05-05T04:24:22.000Z,98411
2019-05-05T04:26:27.000Z,98412
2019-05-05T04:27:53.000Z,98412
2019-05-05T04:29:54.000Z,98412
2019-05-05T04:31:22.000Z,98412
2019-05-05T04:33:34.000Z,98415
2019-05-05T04:35:01.000Z,98415
2019-05-05T04:37:07.000Z,98418
2019-05-05T04:38:30.000Z,98419
2019-05-05T04:40:33.000Z,98422
2019-05-05T04:42:00.000Z,98423
2019-05-05T04:44:03.000Z,98427
2019-05-05T04:45:27.000Z,98428
2019-05-05T04:47:29.000Z,98429
2019-05-05T04:48:58.000Z,98433
2019-05-05T04:51:03.000Z,98434
2019-05-05T04:52:34.000Z,98439
2019-05-05T04:54:41.000Z,98442
2019-05-05T04:56:08.000Z,98445
2019-05-05T04:58:20.000Z,98448
2019-05-05T04:59:48.000Z,98450
2019-05-05T05:01:53.000Z,98453
2019-05-05T05:03:25.000Z,98454
2019-05-05T05:05:29.000Z,98455
2019-05-05T05:06:59.000Z,98455
2019-05-05T05:09:10.000Z,98456
2019-05-05T05:10:42.000Z,98458
2019-05-05T05:14:23.000Z,98459
2019-05-05T05:20:48.000Z,98464
2019-05-05T05:22:10.000Z,98468
2019-05-05T05:24:11.000Z,98468
2019-05-05T05:25:34.000Z,98471
2019-05-05T05:27:35.000Z,98469
2019-05-05T05:28:58.000Z,98468
2019-05-05T05:30:59.000Z,98470
2019-05-05T05:32:21.000Z,98471
2019-05-05T05:34:24.000Z,98471
2019-05-05T05:35:46.000Z,98471
2019-05-05T05:37:47.000Z,98475
2019-05-05T05:39:09.000Z,98475
2019-05-05T05:41:10.000Z,98476
2019-05-05T05:42:33.000Z,98474
2019-05-05T05:44:36.000Z,98472
2019-05-05T05:45:58.000Z,98471
2019-05-05T05:47:59.000Z,98469
2019-05-05T05:49:22.000Z,98468
2019-05-05T05:51:25.000Z,98469
2019-05-05T05:52:47.000Z,98469
2019-05-05T05:54:50.000Z,98467
2019-05-05T05:56:14.000Z,98470
2019-05-05T05:58:16.000Z,98473
2019-05-05T05:59:38.000Z,98475
2019-05-05T06:01:39.000Z,98475
2019-05-05T06:03:01.000Z,98473
2019-05-05T06:05:04.000Z,98473
2019-05-05T06:06:26.000Z,98474
2019-05-05T06:08:27.000Z,98474
2019-05-05T06:09:52.000Z,98472
2019-05-05T06:11:55.000Z,98472
2019-05-05T06:13:17.000Z,98472
2019-05-05T06:15:17.000Z,98472
2019-05-05T06:16:39.000Z,98474
2019-05-05T06:18:41.000Z,98472
2019-05-05T06:20:06.000Z,98470
2019-05-05T06:22:08.000Z,98468
2019-05-05T06:23:30.000Z,98469
2019-05-05T06:25:31.000Z,98471
2019-05-05T06:26:59.000Z,98473
2019-05-05T06:29:00.000Z,98475
2019-05-05T06:30:22.000Z,98473
2019-05-05T06:32:25.000Z,98474
2019-05-05T06:33:52.000Z,98476
2019-05-05T06:35:55.000Z,98477
2019-05-05T06:37:19.000Z,98479
2019-05-05T06:39:24.000Z,98482
2019-05-05T06:40:47.000Z,98482
2019-05-05T06:42:48.000Z,98481
2019-05-05T06:44:11.000Z,98482
2019-05-05T06:46:16.000Z,98486
2019-05-05T06:47:40.000Z,98489
2019-05-05T06:49:43.000Z,98488
2019-05-05T06:51:06.000Z,98488
2019-05-05T06:53:08.000Z,98485
2019-05-05T06:54:32.000Z,98483
2019-05-05T06:56:38.000Z,98481
2019-05-05T06:58:01.000Z,98482
2019-05-05T07:00:03.000Z,98485
2019-05-05T07:01:29.000Z,98487
2019-05-05T07:03:32.000Z,98491
2019-05-05T07:04:57.000Z,98490
2019-05-05T07:06:59.000Z,98492
2019-05-05T07:08:23.000Z,98493
2019-05-05T07:10:27.000Z,98494
2019-05-05T07:11:51.000Z,98495
2019-05-05T07:13:58.000Z,98496
2019-05-05T07:15:21.000Z,98498
2019-05-05T07:17:25.000Z,98501
2019-05-05T07:18:50.000Z,98501
2019-05-05T07:20:54.000Z,98500
2019-05-05T07:22:21.000Z,98499
2019-05-05T07:24:27.000Z,98498
2019-05-05T07:25:52.000Z,98495
2019-05-05T07:27:56.000Z,98494
2019-05-05T07:29:21.000Z,98491
2019-05-05T07:31:22.000Z,98489
2019-05-05T07:32:49.000Z,98488
2019-05-05T07:34:51.000Z,98491
2019-05-05T07:36:13.000Z,98490
2019-05-05T07:38:18.000Z,98492
2019-05-05T07:39:41.000Z,98490
2019-05-05T07:41:44.000Z,98487
2019-05-05T07:43:10.000Z,98490
2019-05-05T07:45:16.000Z,98487
2019-05-05T07:46:49.000Z,98486
2019-05-05T07:48:52.000Z,98488
2019-05-05T07:50:18.000Z,98488
2019-05-05T07:52:36.000Z,98487
2019-05-05T07:54:00.000Z,98485
2019-05-05T07:56:05.000Z,98481
2019-05-05T07:57:32.000Z,98482
2019-05-05T07:59:37.000Z,98481
2019-05-05T08:01:01.000Z,98483
2019-05-05T08:03:05.000Z,98485
2019-05-05T08:04:34.000Z,98483
2019-05-05T08:06:37.000Z,98483
2019-05-05T08:08:01.000Z,98486
2019-05-05T08:10:08.000Z,98486
2019-05-05T08:11:33.000Z,98490
2019-05-05T08:13:38.000Z,98483
2019-05-05T08:15:06.000Z,98483
2019-05-05T08:17:13.000Z,98483
2019-05-05T08:18:40.000Z,98483
2019-05-05T08:20:49.000Z,98482
2019-05-05T08:22:17.000Z,98480
2019-05-05T08:24:24.000Z,98481
2019-05-05T08:25:53.000Z,98483
2019-05-05T08:27:59.000Z,98485
2019-05-05T08:29:23.000Z,98487
2019-05-05T08:31:31.000Z,98484
2019-05-05T08:32:54.000Z,98490
2019-05-05T08:34:58.000Z,98489
2019-05-05T08:36:26.000Z,98487
2019-05-05T08:38:30.000Z,98483
2019-05-05T08:39:55.000Z,98483
2019-05-05T08:42:00.000Z,98478
2019-05-05T08:43:25.000Z,98478
2019-05-05T08:45:31.000Z,98481
2019-05-05T08:46:58.000Z,98484
2019-05-05T08:49:09.000Z,98484
2019-05-05T08:50:38.000Z,98484
2019-05-05T08:52:52.000Z,98479
2019-05-05T08:54:26.000Z,98478
2019-05-05T08:56:34.000Z,98477
2019-05-05T08:58:02.000Z,98478
2019-05-05T09:00:11.000Z,98478
2019-05-05T09:01:36.000Z,98481
2019-05-05T09:03:40.000Z,98484
2019-05-05T09:05:06.000Z,98485
2019-05-05T09:07:14.000Z,98487
2019-05-05T09:08:43.000Z,98488
2019-05-05T09:10:58.000Z,98493
2019-05-05T09:12:25.000Z,98489
2019-05-05T09:14:30.000Z,98491
2019-05-05T09:16:01.000Z,98493
2019-05-05T09:18:12.000Z,98493
2019-05-05T09:19:40.000Z,98495
2019-05-05T09:21:50.000Z,98494
2019-05-05T09:23:18.000Z,98494
2019-05-05T09:25:27.000Z,98493
2019-05-05T09:26:55.000Z,98492
2019-05-05T09:29:02.000Z,98491
2019-05-05T09:30:38.000Z,98492
2019-05-05T09:32:55.000Z,98489
2019-05-05T09:34:27.000Z,98486
2019-05-05T09:36:33.000Z,98483
2019-05-05T09:38:06.000Z,98484
2019-05-05T09:40:15.000Z,98486
2019-05-05T09:41:47.000Z,98488
2019-05-05T09:43:53.000Z,98490
2019-05-05T09:45:22.000Z,98490
2019-05-05T09:47:41.000Z,98485
2019-05-05T09:49:11.000Z,98486
2019-05-05T09:51:22.000Z,98484
2019-05-05T09:52:53.000Z,98486
2019-05-05T09:55:01.000Z,98491
2019-05-05T09:56:34.000Z,98491
2019-05-05T09:58:43.000Z,98491
2019-05-05T10:00:13.000Z,98492
2019-05-05T10:02:26.000Z,98494
2019-05-05T10:03:55.000Z,98495
2019-05-05T10:06:06.000Z,98498
2019-05-05T10:07:35.000Z,98502
2019-05-05T10:14:57.000Z,98506
2019-05-05T10:16:19.000Z,98506
2019-05-05T10:18:20.000Z,98507
2019-05-05T10:19:43.000Z,98509
2019-05-05T10:21:44.000Z,98511
2019-05-05T10:23:06.000Z,98512
2019-05-05T10:25:07.000Z,98514
2019-05-05T10:26:29.000Z,98517
2019-05-05T10:28:30.000Z,98518
2019-05-05T10:29:52.000Z,98517
2019-05-05T10:31:55.000Z,98514
2019-05-05T10:33:17.000Z,98515
2019-05-05T10:35:19.000Z,98512
2019-05-05T10:36:41.000Z,98512
2019-05-05T10:38:42.000Z,98512
2019-05-05T10:40:08.000Z,98512
2019-05-05T10:42:09.000Z,98516
2019-05-05T10:43:31.000Z,98514
2019-05-05T10:45:34.000Z,98513
2019-05-05T10:46:56.000Z,98510
2019-05-05T10:48:57.000Z,98512
2019-05-05T10:50:21.000Z,98510
2019-05-05T10:52:22.000Z,98511
2019-05-05T10:53:44.000Z,98513
2019-05-05T10:55:45.000Z,98511
2019-05-05T10:57:08.000Z,98512
2019-05-05T10:59:10.000Z,98512
2019-05-05T11:00:32.000Z,98508
2019-05-05T11:02:35.000Z,98505
2019-05-05T11:03:57.000Z,98504
2019-05-05T11:05:59.000Z,98505
2019-05-05T11:07:21.000Z,98508
2019-05-05T11:09:25.000Z,98509
2019-05-05T11:10:47.000Z,98511
2019-05-05T11:12:48.000Z,98508
2019-05-05T11:14:10.000Z,98508
2019-05-05T11:16:11.000Z,98512
2019-05-05T11:17:33.000Z,98510
2019-05-05T11:19:35.000Z,98510
2019-05-05T11:20:57.000Z,98510
2019-05-05T11:22:58.000Z,98512
2019-05-05T11:24:20.000Z,98513
2019-05-05T11:26:26.000Z,98512
2019-05-05T11:27:50.000Z,98513
2019-05-05T11:29:51.000Z,98513
2019-05-05T11:31:15.000Z,98515
2019-05-05T11:33:16.000Z,98517
2019-05-05T11:34:38.000Z,98519
2019-05-05T11:36:42.000Z,98521
2019-05-05T11:38:06.000Z,98522
2019-05-05T11:40:09.000Z,98522
2019-05-05T11:41:31.000Z,98522
2019-05-05T11:43:32.000Z,98522
2019-05-05T11:44:56.000Z,98520
2019-05-05T11:46:57.000Z,98521
2019-05-05T11:48:19.000Z,98517
2019-05-05T11:50:23.000Z,98515
2019-05-05T11:51:49.000Z,98516
2019-05-05T11:53:52.000Z,98513
2019-05-05T11:55:15.000Z,98513
2019-05-05T11:57:16.000Z,98511
2019-05-05T11:58:39.000Z,98509
2019-05-05T12:00:42.000Z,98506
2019-05-05T12:02:08.000Z,98504
2019-05-05T12:04:12.000Z,98497
2019-05-05T12:05:36.000Z,98498
2019-05-05T12:07:38.000Z,98497
2019-05-05T12:09:04.000Z,98496
2019-05-05T12:11:06.000Z,98498
2019-05-05T12:12:30.000Z,98499
2019-05-05T12:14:35.000Z,98499
2019-05-05T12:15:57.000Z,98499
2019-05-05T12:17:59.000Z,98500
2019-05-05T12:19:22.000Z,98499
2019-05-05T12:21:26.000Z,98500
2019-05-05T12:22:55.000Z,98500
2019-05-05T12:24:58.000Z,98501
2019-05-05T12:26:20.000Z,98502
2019-05-05T12:28:25.000Z,98499
2019-05-05T12:29:51.000Z,98501
2019-05-05T12:31:58.000Z,98500
2019-05-05T12:33:27.000Z,98501
2019-05-05T12:35:30.000Z,98500
2019-05-05T12:36:56.000Z,98501
2019-05-05T12:38:57.000Z,98501
2019-05-05T12:40:28.000Z,98503
2019-05-05T12:42:31.000Z,98503
2019-05-05T12:43:56.000Z,98505
2019-05-05T12:46:02.000Z,98507
2019-05-05T12:47:29.000Z,98510
2019-05-05T12:49:36.000Z,98514
2019-05-05T12:51:03.000Z,98517
2019-05-05T12:53:10.000Z,98515
2019-05-05T12:54:36.000Z,98511
2019-05-05T12:56:43.000Z,98507
2019-05-05T12:58:12.000Z,98507
2019-05-05T13:00:16.000Z,98505
2019-05-05T13:01:40.000Z,98503
2019-05-05T13:03:48.000Z,98501
2019-05-05T13:05:14.000Z,98499
2019-05-05T13:07:19.000Z,98502
2019-05-05T13:08:47.000Z,98501
2019-05-05T13:10:49.000Z,98499
2019-05-05T13:12:13.000Z,98498
2019-05-05T13:14:21.000Z,98497
2019-05-05T13:15:49.000Z,98498
2019-05-05T13:17:56.000Z,98497
2019-05-05T13:19:21.000Z,98495
2019-05-05T13:21:28.000Z,98493
2019-05-05T13:22:57.000Z,98495
2019-05-05T13:25:02.000Z,98496
2019-05-05T13:26:33.000Z,98491
2019-05-05T13:28:39.000Z,98493
2019-05-05T13:30:05.000Z,98492
2019-05-05T13:32:12.000Z,98492
2019-05-05T13:33:42.000Z,98490
2019-05-05T13:35:54.000Z,98493
2019-05-05T13:37:18.000Z,98491
2019-05-05T13:39:24.000Z,98485
2019-05-05T13:40:56.000Z,98497
2019-05-05T13:43:06.000Z,98499
2019-05-05T13:44:35.000Z,98497
2019-05-05T13:46:47.000Z,98497
2019-05-05T13:48:15.000Z,98495
2019-05-05T13:50:18.000Z,98498
2019-05-05T13:51:46.000Z,98498
2019-05-05T13:53:57.000Z,98496
2019-05-05T13:55:29.000Z,98496
2019-05-05T13:57:39.000Z,98493
2019-05-05T13:59:08.000Z,98492
2019-05-05T14:01:18.000Z,98491
2019-05-05T14:02:46.000Z,98487
2019-05-05T14:05:01.000Z,98489
2019-05-05T14:06:34.000Z,98489
2019-05-05T14:08:42.000Z,98487
2019-05-05T14:10:11.000Z,98489
2019-05-05T14:12:21.000Z,98489
2019-05-05T14:13:59.000Z,98487
2019-05-05T14:16:08.000Z,98486
2019-05-05T14:17:45.000Z,98485
2019-05-05T14:19:59.000Z,98487
2019-05-05T14:21:35.000Z,98488
2019-05-05T14:23:45.000Z,98489
2019-05-05T14:25:19.000Z,98486
2019-05-05T14:27:30.000Z,98486
2019-05-05T14:28:59.000Z,98487
2019-05-05T14:31:07.000Z,98488
2019-05-05T14:32:37.000Z,98487
2019-05-05T14:34:46.000Z,98483
2019-05-05T14:36:15.000Z,98481
2019-05-05T14:38:28.000Z,98481
2019-05-05T14:39:52.000Z,98480
2019-05-05T14:42:05.000Z,98482
2019-05-05T14:43:32.000Z,98478
2019-05-05T14:45:46.000Z,98475
2019-05-05T14:47:15.000Z,98474
2019-05-05T14:49:25.000Z,98476
2019-05-05T14:50:51.000Z,98478
2019-05-05T14:53:08.000Z,98475
2019-05-05T14:54:36.000Z,98473
2019-05-05T14:56:42.000Z,98470
2019-05-05T14:58:14.000Z,98468
2019-05-05T15:05:38.000Z,98468
2019-05-05T15:07:00.000Z,98467
2019-05-05T15:09:01.000Z,98465
2019-05-05T15:10:25.000Z,98466
2019-05-05T15:12:27.000Z,98468
2019-05-05T15:13:50.000Z,98468
2019-05-05T15:15:51.000Z,98470
2019-05-05T15:17:13.000Z,98470
2019-05-05T15:19:15.000Z,98472
2019-05-05T15:20:37.000Z,98473
2019-05-05T15:22:38.000Z,98472
2019-05-05T15:24:00.000Z,98473
2019-05-05T15:26:01.000Z,98473
2019-05-05T15:27:23.000Z,98473
2019-05-05T15:29:25.000Z,98473
2019-05-05T15:30:47.000Z,98470
2019-05-05T15:32:49.000Z,98469
2019-05-05T15:34:11.000Z,98465
2019-05-05T15:36:12.000Z,98464
2019-05-05T15:37:36.000Z,98463
2019-05-05T15:39:38.000Z,98463
2019-05-05T15:41:03.000Z,98461
2019-05-05T15:43:05.000Z,98461
2019-05-05T15:44:28.000Z,98459
2019-05-05T15:46:31.000Z,98457
2019-05-05T15:47:55.000Z,98457
2019-05-05T15:49:56.000Z,98460
2019-05-05T15:51:18.000Z,98461
2019-05-05T15:53:19.000Z,98465
2019-05-05T15:54:41.000Z,98463
2019-05-05T15:56:42.000Z,98463
2019-05-05T15:58:04.000Z,98465
2019-05-05T16:00:08.000Z,98463
2019-05-05T16:01:29.000Z,98463
2019-05-05T16:03:31.000Z,98465
2019-05-05T16:04:53.000Z,98465
2019-05-05T16:06:54.000Z,98465
2019-05-05T16:08:17.000Z,98464
2019-05-05T16:10:18.000Z,98464
2019-05-05T16:11:41.000Z,98463
2019-05-05T16:13:42.000Z,98463
2019-05-05T16:15:05.000Z,98465
2019-05-05T16:17:10.000Z,98469
2019-05-05T16:18:34.000Z,98472
2019-05-05T16:20:36.000Z,98471
2019-05-05T16:21:59.000Z,98473
2019-05-05T16:24:01.000Z,98474
2019-05-05T16:25:26.000Z,98477
2019-05-05T16:27:28.000Z,98478
2019-05-05T16:28:53.000Z,98481
2019-05-05T16:30:57.000Z,98483
2019-05-05T16:32:19.000Z,98485
2019-05-05T16:34:26.000Z,98490
2019-05-05T16:35:48.000Z,98493
2019-05-05T16:37:48.000Z,98497
2019-05-05T16:39:10.000Z,98499
2019-05-05T16:41:12.000Z,98500
2019-05-05T16:42:38.000Z,98501
2019-05-05T16:44:39.000Z,98500
2019-05-05T16:46:02.000Z,98499
2019-05-05T16:48:07.000Z,98498
2019-05-05T16:49:32.000Z,98498
2019-05-05T16:53:09.000Z,98495
2019-05-05T16:59:25.000Z,98497
2019-05-05T17:00:47.000Z,98500
2019-05-05T17:02:48.000Z,98504
2019-05-05T17:04:10.000Z,98504
2019-05-05T17:06:14.000Z,98504
2019-05-05T17:07:36.000Z,98506
2019-05-05T17:09:37.000Z,98506
2019-05-05T17:11:00.000Z,98503
2019-05-05T17:13:02.000Z,98503
2019-05-05T17:14:25.000Z,98505
2019-05-05T17:16:27.000Z,98506
2019-05-05T17:17:50.000Z,98506
2019-05-05T17:19:52.000Z,98507
2019-05-05T17:21:16.000Z,98507
2019-05-05T17:23:18.000Z,98507
2019-05-05T17:24:40.000Z,98507
2019-05-05T17:26:41.000Z,98508
2019-05-05T17:28:06.000Z,98509
2019-05-05T17:31:44.000Z,98513
2019-05-05T17:37:52.000Z,98519
2019-05-05T17:39:15.000Z,98518
2019-05-05T17:41:17.000Z,98520
2019-05-05T17:42:39.000Z,98522
2019-05-05T17:44:40.000Z,98525
2019-05-05T17:46:02.000Z,98528
2019-05-05T17:48:05.000Z,98532
2019-05-05T17:49:27.000Z,98532
2019-05-05T17:51:28.000Z,98532
2019-05-05T17:52:53.000Z,98533
2019-05-05T17:54:54.000Z,98533
2019-05-05T17:56:17.000Z,98534
2019-05-05T17:58:19.000Z,98535
2019-05-05T17:59:41.000Z,98536
2019-05-05T18:01:44.000Z,98536
2019-05-05T18:03:07.000Z,98537
2019-05-05T18:05:10.000Z,98537
2019-05-05T18:06:32.000Z,98536
2019-05-05T18:08:35.000Z,98539
2019-05-05T18:09:57.000Z,98539
2019-05-05T18:11:58.000Z,98540
2019-05-05T18:13:22.000Z,98542
2019-05-05T18:15:25.000Z,98543
2019-05-05T18:16:49.000Z,98545
2019-05-05T18:18:50.000Z,98545
2019-05-05T18:20:12.000Z,98547
2019-05-05T18:22:14.000Z,98547
2019-05-05T18:23:36.000Z,98546
2019-05-05T18:25:45.000Z,98545
2019-05-05T18:27:08.000Z,98546
2019-05-05T18:29:11.000Z,98547
2019-05-05T18:30:36.000Z,98548
2019-05-05T18:32:39.000Z,98550
2019-05-05T18:34:01.000Z,98552
2019-05-05T18:36:05.000Z,98552
2019-05-05T18:37:27.000Z,98553
2019-05-05T18:39:28.000Z,98554
2019-05-05T18:40:51.000Z,98556
2019-05-05T18:42:56.000Z,98555
2019-05-05T18:44:20.000Z,98554
2019-05-05T18:46:22.000Z,98555
2019-05-05T18:47:48.000Z,98557
2019-05-05T18:49:51.000Z,98558
2019-05-05T18:51:13.000Z,98557
2019-05-05T18:53:18.000Z,98558
2019-05-05T18:54:42.000Z,98559
2019-05-05T18:56:46.000Z,98560
2019-05-05T18:58:09.000Z,98563
2019-05-05T19:00:10.000Z,98564
2019-05-05T19:01:33.000Z,98565
2019-05-05T19:03:36.000Z,98568
2019-05-05T19:04:58.000Z,98570
2019-05-05T19:07:00.000Z,98571
2019-05-05T19:08:23.000Z,98573
2019-05-05T19:10:28.000Z,98577
2019-05-05T19:11:53.000Z,98578
2019-05-05T19:13:58.000Z,98581
2019-05-05T19:15:19.000Z,98583
2019-05-05T19:17:21.000Z,98585
2019-05-05T19:18:47.000Z,98586
2019-05-05T19:20:50.000Z,98589
2019-05-05T19:22:14.000Z,98592
2019-05-05T19:24:17.000Z,98593
2019-05-05T19:25:40.000Z,98593
2019-05-05T19:27:46.000Z,98595
2019-05-05T19:29:09.000Z,98597
2019-05-05T19:31:15.000Z,98598
2019-05-05T19:32:39.000Z,98598
2019-05-05T19:34:42.000Z,98598
2019-05-05T19:36:06.000Z,98599
2019-05-05T19:38:12.000Z,98598
2019-05-05T19:39:39.000Z,98596
2019-05-05T19:41:43.000Z,98596
2019-05-05T19:43:11.000Z,98596
2019-05-05T19:45:16.000Z,98596
2019-05-05T19:46:45.000Z,98596
2019-05-05T19:48:51.000Z,98597
2019-05-05T19:50:20.000Z,98595
2019-05-05T19:52:29.000Z,98597
2019-05-05T19:53:54.000Z,98599
2019-05-05T19:55:59.000Z,98600
2019-05-05T19:57:24.000Z,98600
2019-05-05T19:59:31.000Z,98603
2019-05-05T20:01:04.000Z,98604
2019-05-05T20:03:12.000Z,98604
2019-05-05T20:04:44.000Z,98603
2019-05-05T20:06:55.000Z,98603
2019-05-05T20:08:20.000Z,98603
2019-05-05T20:10:26.000Z,98604
2019-05-05T20:11:52.000Z,98603
2019-05-05T20:13:59.000Z,98604
2019-05-05T20:15:38.000Z,98605
2019-05-05T20:17:44.000Z,98606
2019-05-05T20:19:11.000Z,98608
2019-05-05T20:21:20.000Z,98607
2019-05-05T20:22:51.000Z,98606
2019-05-05T20:24:55.000Z,98608
2019-05-05T20:26:18.000Z,98608
2019-05-05T20:28:22.000Z,98608
2019-05-05T20:29:49.000Z,98608
2019-05-05T20:31:58.000Z,98609
2019-05-05T20:33:22.000Z,98610
2019-05-05T20:35:29.000Z,98612
2019-05-05T20:37:01.000Z,98613
2019-05-05T20:39:08.000Z,98615
2019-05-05T20:40:39.000Z,98613
2019-05-05T20:42:45.000Z,98615
2019-05-05T20:44:09.000Z,98617
2019-05-05T20:46:15.000Z,98615
2019-05-05T20:47:40.000Z,98618
2019-05-05T20:49:44.000Z,98619
2019-05-05T20:51:11.000Z,98619
2019-05-05T20:53:15.000Z,98620
2019-05-05T20:54:49.000Z,98620
2019-05-05T20:56:52.000Z,98619
2019-05-05T20:58:28.000Z,98617
2019-05-05T21:00:32.000Z,98616
2019-05-05T21:02:02.000Z,98616
2019-05-05T21:04:09.000Z,98616
2019-05-05T21:05:34.000Z,98618
2019-05-05T21:07:47.000Z,98618
2019-05-05T21:09:11.000Z,98618
2019-05-05T21:11:23.000Z,98618
2019-05-05T21:12:56.000Z,98616
2019-05-05T21:15:04.000Z,98614
2019-05-05T21:16:30.000Z,98613
2019-05-05T21:18:34.000Z,98612
2019-05-05T21:20:03.000Z,98610
2019-05-05T21:22:11.000Z,98610
2019-05-05T21:23:40.000Z,98609
2019-05-05T21:25:49.000Z,98606
2019-05-05T21:27:18.000Z,98607
2019-05-05T21:29:25.000Z,98608
2019-05-05T21:31:09.000Z,98607
2019-05-05T21:33:24.000Z,98608
2019-05-05T21:34:50.000Z,98610
2019-05-05T21:36:57.000Z,98613
2019-05-05T21:38:28.000Z,98613
2019-05-05T21:40:39.000Z,98615
2019-05-05T21:42:11.000Z,98615
2019-05-05T21:44:28.000Z,98617
2019-05-05T21:45:59.000Z,98617
2019-05-05T21:48:12.000Z,98616
2019-05-05T21:49:42.000Z,98615
2019-05-05T21:51:57.000Z,98615
2019-05-05T21:53:27.000Z,98615
2019-05-05T21:55:39.000Z,98613
2019-05-05T21:57:07.000Z,98614
2019-05-05T21:59:13.000Z,98614
2019-05-05T22:00:43.000Z,98614
2019-05-05T22:02:49.000Z,98616
2019-05-05T22:04:17.000Z,98616
2019-05-05T22:06:28.000Z,98615
2019-05-05T22:08:00.000Z,98614
2019-05-05T22:10:10.000Z,98611
2019-05-05T22:11:40.000Z,98610
2019-05-05T22:13:52.000Z,98611
2019-05-05T22:15:26.000Z,98611
2019-05-05T22:17:42.000Z,98610
2019-05-05T22:19:17.000Z,98610
2019-05-05T22:21:28.000Z,98610
2019-05-05T22:22:57.000Z,98610
2019-05-05T22:25:08.000Z,98607
2019-05-05T22:26:38.000Z,98603
2019-05-05T22:34:01.000Z,98599
2019-05-05T22:35:22.000Z,98600
2019-05-05T22:37:24.000Z,98599
2019-05-05T22:38:46.000Z,98599
2019-05-05T22:40:47.000Z,98597
2019-05-05T22:42:09.000Z,98598
2019-05-05T22:44:10.000Z,98598
2019-05-05T22:45:32.000Z,98600
2019-05-05T22:47:35.000Z,98598
2019-05-05T22:48:57.000Z,98597
2019-05-05T22:50:58.000Z,98597
2019-05-05T22:52:20.000Z,98598
2019-05-05T22:54:21.000Z,98600
2019-05-05T22:55:46.000Z,98601
2019-05-05T22:57:47.000Z,98602
2019-05-05T22:59:09.000Z,98604
2019-05-05T23:01:11.000Z,98602
2019-05-05T23:02:33.000Z,98603
2019-05-05T23:04:35.000Z,98603
2019-05-05T23:05:57.000Z,98603
2019-05-05T23:07:58.000Z,98605
2019-05-05T23:09:21.000Z,98608
2019-05-05T23:11:23.000Z,98607
2019-05-05T23:12:45.000Z,98607
2019-05-05T23:14:47.000Z,98606
2019-05-05T23:16:09.000Z,98605
2019-05-05T23:18:10.000Z,98604